createdAt,value
2019-06-26T01:44:16.952Z,11.66
2019-06-26T01:45:04.876Z,10.52
2019-06-26T01:46:05.566Z,10.45
2019-06-26T01:47:05.023Z,10.22
2019-06-26T01:48:05.568Z,10.21
2019-06-26T01:49:05.314Z,10.5
2019-06-26T01:50:05.372Z,10.33
2019-06-26T01:51:04.841Z,9.72
2019-06-26T01:52:05.688Z,10.88
2019-06-26T01:53:04.987Z,11.3
2019-06-26T01:54:05.564Z,10.79
2019-06-26T01:55:04.956Z,11.2
2019-06-26T01:56:04.583Z,11.51
2019-06-26T01:57:05.396Z,10.96
2019-06-26T01:58:04.574Z,10.73
2019-06-26T01:59:05.435Z,10.13
2019-06-26T02:00:04.842Z,11.52
2019-06-26T02:01:05.457Z,11.06
2019-06-26T02:02:05.117Z,13.18
2019-06-26T02:03:05.599Z,11.35
2019-06-26T02:04:04.930Z,11.56
2019-06-26T02:05:05.611Z,11.66
2019-06-26T02:06:04.815Z,10.98
2019-06-26T02:07:04.796Z,10.8
2019-06-26T02:08:05.410Z,11.68
2019-06-26T02:09:04.650Z,12.48
2019-06-26T02:10:05.395Z,12.16
2019-06-26T02:11:04.612Z,12.08
2019-06-26T02:12:05.424Z,12.04
2019-06-26T02:13:04.442Z,12.3
2019-06-26T02:14:04.804Z,12.3
2019-06-26T02:15:05.283Z,12.24
2019-06-26T02:16:04.813Z,12.21
2019-06-26T02:17:05.168Z,12.21
2019-06-26T02:18:05.007Z,12.02
2019-06-26T02:19:05.190Z,10.91
2019-06-26T02:20:04.835Z,11.74
2019-06-26T02:21:05.649Z,11.33
2019-06-26T02:22:04.780Z,11.16
2019-06-26T02:23:05.237Z,11.25
2019-06-26T02:24:04.514Z,12.73
2019-06-26T02:25:05.577Z,10.26
2019-06-26T02:26:05.021Z,12.26
2019-06-26T02:27:04.617Z,13.64
2019-06-26T02:28:05.346Z,13.02
2019-06-26T02:29:04.799Z,12.15
2019-06-26T02:30:04.893Z,12.43
2019-06-26T02:31:04.816Z,12.05
2019-06-26T02:32:05.307Z,11.44
2019-06-26T02:33:04.826Z,11.26
2019-06-26T02:34:05.532Z,10.32
2019-06-26T02:35:09.009Z,10.69
2019-06-26T02:36:05.450Z,10.82
2019-06-26T02:37:04.988Z,9.84
2019-06-26T02:38:05.567Z,9.38
2019-06-26T02:39:05.300Z,10.66
2019-06-26T02:40:04.705Z,9.71
2019-06-26T02:41:05.088Z,9.61
2019-06-26T02:42:05.415Z,10.12
2019-06-26T02:43:09.095Z,10.89
2019-06-26T02:44:05.721Z,10.09
2019-06-26T02:45:05.106Z,10.25
2019-06-26T02:46:04.786Z,10.18
2019-06-26T02:47:21.655Z,11.24
2019-06-26T02:48:04.824Z,10.67
2019-06-26T02:49:05.456Z,10.99
2019-06-26T02:50:05.728Z,11.23
2019-06-26T02:51:05.603Z,11.23
2019-06-26T02:52:05.001Z,11.72
2019-06-26T02:53:04.607Z,11.72
2019-06-26T02:54:05.305Z,12.2
2019-06-26T02:55:05.668Z,11.74
2019-06-26T02:56:05.075Z,12.38
2019-06-26T02:57:05.329Z,12.37
2019-06-26T02:58:04.839Z,12.32
2019-06-26T02:59:04.834Z,11.78
2019-06-26T03:00:05.350Z,11.76
2019-06-26T03:01:04.645Z,11.59
2019-06-26T03:02:05.467Z,11.48
2019-06-26T03:03:04.798Z,11.77
2019-06-26T03:04:04.877Z,11.79
2019-06-26T03:05:04.934Z,11.39
2019-06-26T03:06:05.622Z,11.64
2019-06-26T03:07:04.845Z,12.46
2019-06-26T03:08:05.551Z,12.66
2019-06-26T03:09:05.034Z,11.92
2019-06-26T03:10:04.748Z,12.38
2019-06-26T03:11:05.242Z,13.61
2019-06-26T03:12:04.811Z,12.54
2019-06-26T03:13:05.043Z,13.55
2019-06-26T03:14:04.761Z,13.55
2019-06-26T03:15:10.861Z,11.48
2019-06-26T03:16:05.508Z,12.54
2019-06-26T03:17:05.201Z,11.19
2019-06-26T03:18:04.898Z,10.33
2019-06-26T03:19:05.419Z,11.59
2019-06-26T03:20:04.752Z,11.17
2019-06-26T03:21:05.266Z,11.65
2019-06-26T03:22:04.711Z,11.57
2019-06-26T03:23:05.238Z,12.03
2019-06-26T03:24:04.832Z,12.63
2019-06-26T03:25:05.210Z,13.94
2019-06-26T03:26:05.709Z,12.54
2019-06-26T03:27:08.160Z,12.96
2019-06-26T03:28:04.758Z,12.96
2019-06-26T03:29:05.674Z,13.21
2019-06-26T03:30:05.223Z,13.21
2019-06-26T03:31:04.863Z,12.59
2019-06-26T03:32:05.015Z,13.01
2019-06-26T03:33:05.041Z,13.01
2019-06-26T03:34:05.139Z,13.18
2019-06-26T03:35:05.204Z,13.21
2019-06-26T03:36:04.727Z,12.18
2019-06-26T03:37:05.187Z,13.21
2019-06-26T03:38:04.378Z,13.28
2019-06-26T03:39:05.154Z,13.12
2019-06-26T03:40:04.626Z,13.72
2019-06-26T03:41:05.428Z,13.81
2019-06-26T03:42:04.974Z,13.85
2019-06-26T03:43:04.621Z,13.21
2019-06-26T03:44:05.097Z,14.31
2019-06-26T03:45:04.982Z,14.87
2019-06-26T03:46:05.681Z,13.81
2019-06-26T03:47:05.515Z,13.33
2019-06-26T03:48:04.731Z,12.72
2019-06-26T03:49:05.198Z,11.66
2019-06-26T03:50:04.966Z,12.34
2019-06-26T03:51:05.668Z,12.6
2019-06-26T03:52:04.975Z,12.69
2019-06-26T03:53:05.556Z,13.02
2019-06-26T03:54:04.911Z,12.92
2019-06-26T03:55:05.471Z,12
2019-06-26T03:56:05.221Z,11.98
2019-06-26T03:57:04.738Z,12.75
2019-06-26T03:58:05.304Z,12.84
2019-06-26T03:59:04.682Z,11.88
2019-06-26T04:00:05.654Z,13.22
2019-06-26T04:01:05.142Z,13.61
2019-06-26T04:02:04.947Z,12.41
2019-06-26T04:03:04.991Z,11.47
2019-06-26T04:04:04.579Z,11.47
2019-06-26T04:05:05.105Z,12.49
2019-06-26T04:06:04.792Z,11.78
2019-06-26T04:07:05.468Z,11.78
2019-06-26T04:08:04.956Z,12.77
2019-06-26T04:09:05.638Z,10.62
2019-06-26T04:10:04.962Z,11.26
2019-06-26T04:11:05.328Z,10.72
2019-06-26T04:12:04.648Z,10.98
2019-06-26T04:13:05.275Z,11.39
2019-06-26T04:14:05.125Z,10.91
2019-06-26T04:15:05.649Z,9.73
2019-06-26T04:16:05.034Z,10.39
2019-06-26T04:17:05.447Z,11.15
2019-06-26T04:18:05.555Z,10.61
2019-06-26T04:19:05.405Z,11.45
2019-06-26T04:20:05.295Z,10.71
2019-06-26T04:21:04.727Z,11.1
2019-06-26T04:22:05.066Z,11.98
2019-06-26T04:23:04.863Z,11.79
2019-06-26T04:24:05.195Z,11.49
2019-06-26T04:25:05.079Z,11.9
2019-06-26T04:26:05.249Z,11.99
2019-06-26T04:27:04.776Z,12.58
2019-06-26T04:28:08.570Z,12.99
2019-06-26T04:29:05.001Z,12.41
2019-06-26T04:30:05.433Z,12.96
2019-06-26T04:31:05.079Z,12.18
2019-06-26T04:32:04.697Z,12.15
2019-06-26T04:33:05.088Z,11.96
2019-06-26T04:34:05.506Z,11.95
2019-06-26T04:35:05.372Z,12.55
2019-06-26T04:36:05.372Z,12.14
2019-06-26T04:37:04.640Z,12.8
2019-06-26T04:38:04.352Z,12.71
2019-06-26T04:39:05.517Z,11.84
2019-06-26T04:40:05.122Z,13.23
2019-06-26T04:41:05.275Z,14.18
2019-06-26T04:42:05.048Z,14.01
2019-06-26T04:43:05.413Z,14.01
2019-06-26T04:44:05.005Z,12.71
2019-06-26T04:45:05.551Z,13.63
2019-06-26T04:46:05.269Z,13.63
2019-06-26T04:47:05.581Z,13.68
2019-06-26T04:48:09.273Z,13.81
2019-06-26T04:49:05.421Z,13.87
2019-06-26T04:50:05.501Z,14.71
2019-06-26T04:51:05.021Z,14.12
2019-06-26T04:52:04.893Z,14.46
2019-06-26T04:53:05.157Z,14.54
2019-06-26T04:54:04.683Z,14.55
2019-06-26T04:55:05.317Z,14.6
2019-06-26T04:56:04.929Z,14.66
2019-06-26T04:57:05.151Z,15.35
2019-06-26T04:58:04.741Z,14.79
2019-06-26T04:59:05.057Z,15.83
2019-06-26T05:00:04.878Z,14.65
2019-06-26T05:01:05.207Z,13.83
2019-06-26T05:02:04.523Z,15.04
2019-06-26T05:03:05.731Z,14.78
2019-06-26T05:04:05.181Z,15.28
2019-06-26T05:05:05.467Z,16
2019-06-26T05:06:04.741Z,15.29
2019-06-26T05:07:04.499Z,16.49
2019-06-26T05:08:05.154Z,15.95
2019-06-26T05:09:05.109Z,15.32
2019-06-26T05:10:04.891Z,15.91
2019-06-26T05:11:05.090Z,15.88
2019-06-26T05:12:05.585Z,15.95
2019-06-26T05:13:05.068Z,16.39
2019-06-26T05:14:04.540Z,15.84
2019-06-26T05:15:05.383Z,15.98
2019-06-26T05:16:20.003Z,16.77
2019-06-26T05:17:04.731Z,16.15
2019-06-26T05:18:05.189Z,13.73
2019-06-26T05:19:05.234Z,14.76
2019-06-26T05:20:05.242Z,14.76
2019-06-26T05:21:05.481Z,13.46
2019-06-26T05:22:05.308Z,14.28
2019-06-26T05:23:05.486Z,14.28
2019-06-26T05:24:05.168Z,13.14
2019-06-26T05:25:05.622Z,15.3
2019-06-26T05:26:04.911Z,15.64
2019-06-26T05:27:04.717Z,16.12
2019-06-26T05:28:07.325Z,16.36
2019-06-26T05:29:04.584Z,15.95
2019-06-26T05:30:05.025Z,14.34
2019-06-26T05:31:05.064Z,15.51
2019-06-26T05:32:05.423Z,16.85
2019-06-26T05:33:05.001Z,15.49
2019-06-26T05:34:05.500Z,14.65
2019-06-26T05:35:05.185Z,14.96
2019-06-26T05:36:05.032Z,15.2
2019-06-26T05:37:04.947Z,14.69
2019-06-26T05:38:04.644Z,13.49
2019-06-26T05:39:05.103Z,14.42
2019-06-26T05:40:04.906Z,16.11
2019-06-26T05:41:05.414Z,19.38
2019-06-26T05:42:08.603Z,17.73
2019-06-26T05:43:05.371Z,17.22
2019-06-26T05:44:04.992Z,16.59
2019-06-26T05:45:05.743Z,17.91
2019-06-26T05:46:04.604Z,16.95
2019-06-26T05:47:09.137Z,16.68
2019-06-26T05:48:05.108Z,16.48
2019-06-26T05:49:04.881Z,16.02
2019-06-26T05:50:05.463Z,15.77
2019-06-26T05:51:04.906Z,16.24
2019-06-26T05:52:05.318Z,17.52
2019-06-26T05:53:05.344Z,15.44
2019-06-26T05:54:04.853Z,18.11
2019-06-26T05:55:05.658Z,17.66
2019-06-26T05:56:05.587Z,17.99
2019-06-26T05:57:05.106Z,16.67
2019-06-26T05:58:04.860Z,16.48
2019-06-26T05:59:04.672Z,14.53
2019-06-26T06:00:05.414Z,14.59
2019-06-26T06:01:05.255Z,14.48
2019-06-26T06:02:05.483Z,14.26
2019-06-26T06:03:04.930Z,15.08
2019-06-26T06:04:05.458Z,15.85
2019-06-26T06:05:05.437Z,16.55
2019-06-26T06:06:04.675Z,16.78
2019-06-26T06:07:05.523Z,15.42
2019-06-26T06:08:04.818Z,15.49
2019-06-26T06:09:05.627Z,14.42
2019-06-26T06:10:05.580Z,14.61
2019-06-26T06:11:05.054Z,14.36
2019-06-26T06:12:05.504Z,16.31
2019-06-26T06:13:05.174Z,16.72
2019-06-26T06:14:05.571Z,16.04
2019-06-26T06:15:05.375Z,16.05
2019-06-26T06:16:08.549Z,16.65
2019-06-26T06:17:05.420Z,15.33
2019-06-26T06:18:05.363Z,15.66
2019-06-26T06:19:04.943Z,14.98
2019-06-26T06:20:05.153Z,15.67
2019-06-26T06:21:04.951Z,15.67
2019-06-26T06:22:05.371Z,15.36
2019-06-26T06:23:05.604Z,15.36
2019-06-26T06:24:04.876Z,15.44
2019-06-26T06:25:05.769Z,15.44
2019-06-26T06:26:04.985Z,17.19
2019-06-26T06:27:05.427Z,15.85
2019-06-26T06:28:05.100Z,15.85
2019-06-26T06:29:04.585Z,16.14
2019-06-26T06:30:05.755Z,16.14
2019-06-26T06:31:05.141Z,16.79
2019-06-26T06:32:05.354Z,17.4
2019-06-26T06:33:05.002Z,17.24
2019-06-26T06:34:05.501Z,16.49
2019-06-26T06:35:04.693Z,14.88
2019-06-26T06:36:05.422Z,15.27
2019-06-26T06:37:05.278Z,14.08
2019-06-26T06:38:04.590Z,15.15
2019-06-26T06:39:04.474Z,15.94
2019-06-26T06:40:05.027Z,15.79
2019-06-26T06:41:05.616Z,17.44
2019-06-26T06:42:05.138Z,16.39
2019-06-26T06:43:04.930Z,15.51
2019-06-26T06:44:05.417Z,16.88
2019-06-26T06:45:05.018Z,17.47
2019-06-26T06:46:05.492Z,15.75
2019-06-26T06:47:08.854Z,13.52
2019-06-26T06:48:04.332Z,15.24
2019-06-26T06:49:05.405Z,17.32
2019-06-26T06:50:04.856Z,15.19
2019-06-26T06:51:05.485Z,13.95
2019-06-26T06:52:05.025Z,16.5
2019-06-26T06:53:05.055Z,15.41
2019-06-26T06:54:04.763Z,16.41
2019-06-26T06:55:04.728Z,16.03
2019-06-26T06:56:05.523Z,14.87
2019-06-26T06:57:05.110Z,14.64
2019-06-26T06:58:05.559Z,14.24
2019-06-26T06:59:05.073Z,15.22
2019-06-26T07:00:04.961Z,16.16
2019-06-26T07:01:05.471Z,13.93
2019-06-26T07:02:04.910Z,13.32
2019-06-26T07:03:05.753Z,15.08
2019-06-26T07:04:05.003Z,15.49
2019-06-26T07:05:04.264Z,15.88
2019-06-26T07:06:05.167Z,16.59
2019-06-26T07:07:04.480Z,17.25
2019-06-26T07:08:05.123Z,16.44
2019-06-26T07:09:05.095Z,15.78
2019-06-26T07:10:05.488Z,15.42
2019-06-26T07:11:05.072Z,14.92
2019-06-26T07:12:05.574Z,14.38
2019-06-26T07:13:05.090Z,16.86
2019-06-26T07:14:05.099Z,16.39
2019-06-26T07:15:05.427Z,15.09
2019-06-26T07:16:04.779Z,15.32
2019-06-26T07:17:21.597Z,15.56
2019-06-26T07:18:05.006Z,14.99
2019-06-26T07:19:05.161Z,14.64
2019-06-26T07:20:05.292Z,14.22
2019-06-26T07:21:05.005Z,14.64
2019-06-26T07:22:09.407Z,15.42
2019-06-26T07:23:04.573Z,15.41
2019-06-26T07:24:05.455Z,15.02
2019-06-26T07:25:04.958Z,15.92
2019-06-26T07:26:04.911Z,15.13
2019-06-26T07:27:05.521Z,15.18
2019-06-26T07:28:04.996Z,13.83
2019-06-26T07:29:04.976Z,13.22
2019-06-26T07:30:05.612Z,14.25
2019-06-26T07:31:04.480Z,17.58
2019-06-26T07:32:05.651Z,17.82
2019-06-26T07:33:05.187Z,15
2019-06-26T07:34:04.977Z,17.6
2019-06-26T07:35:05.197Z,16.52
2019-06-26T07:36:04.990Z,16.02
2019-06-26T07:37:04.695Z,15.52
2019-06-26T07:38:05.091Z,14.51
2019-06-26T07:39:05.683Z,16.69
2019-06-26T07:40:05.256Z,15.91
2019-06-26T07:41:05.232Z,15.91
2019-06-26T07:43:05.216Z,16.26
2019-06-26T07:44:04.798Z,16.81
2019-06-26T07:45:05.405Z,16.15
2019-06-26T07:46:04.824Z,18.09
2019-06-26T07:47:12.570Z,16.19
2019-06-26T07:48:05.362Z,17.38
2019-06-26T07:49:05.345Z,13.89
2019-06-26T07:50:05.758Z,15.62
2019-06-26T07:51:05.075Z,16.44
2019-06-26T07:52:05.468Z,16.44
2019-06-26T07:53:05.323Z,18.01
2019-06-26T07:54:04.771Z,18.01
2019-06-26T07:55:05.405Z,14.62
2019-06-26T07:56:04.827Z,16.08
2019-06-26T07:57:04.505Z,16.08
2019-06-26T07:58:05.241Z,15.85
2019-06-26T07:59:04.725Z,15.85
2019-06-26T08:00:05.009Z,15.49
2019-06-26T08:01:05.422Z,15.49
2019-06-26T08:02:05.039Z,15.35
2019-06-26T08:03:06.683Z,14.89
2019-06-26T08:04:05.637Z,14.89
2019-06-26T08:05:05.112Z,13.22
2019-06-26T08:06:05.321Z,14.25
2019-06-26T08:07:05.182Z,14.11
2019-06-26T08:08:05.576Z,13.08
2019-06-26T08:09:05.611Z,14.28
2019-06-26T08:10:05.134Z,12.95
2019-06-26T08:11:08.623Z,13.94
2019-06-26T08:12:04.934Z,13.58
2019-06-26T08:13:04.758Z,13.48
2019-06-26T08:14:05.392Z,14.07
2019-06-26T08:15:05.332Z,14.29
2019-06-26T08:16:04.701Z,13.46
2019-06-26T08:17:05.378Z,12.66
2019-06-26T08:18:04.746Z,12.24
2019-06-26T08:19:05.497Z,13.42
2019-06-26T08:20:05.007Z,13.46
2019-06-26T08:21:14.323Z,12.44
2019-06-26T08:22:04.899Z,13.25
2019-06-26T08:23:04.937Z,12.02
2019-06-26T08:24:05.581Z,13.26
2019-06-26T08:25:05.347Z,12.08
2019-06-26T08:26:05.444Z,12.53
2019-06-26T08:27:05.060Z,10.82
2019-06-26T08:28:05.181Z,12.34
2019-06-26T08:29:05.752Z,11.28
2019-06-26T08:30:05.370Z,11.45
2019-06-26T08:31:04.713Z,12.31
2019-06-26T08:32:05.260Z,13.07
2019-06-26T08:33:04.685Z,11.83
2019-06-26T08:34:04.975Z,12.52
2019-06-26T08:35:05.376Z,11.74
2019-06-26T08:36:04.481Z,12.74
2019-06-26T08:37:05.470Z,13.28
2019-06-26T08:38:15.559Z,12.24
2019-06-26T08:39:05.198Z,11.78
2019-06-26T08:40:05.177Z,11.84
2019-06-26T08:41:04.598Z,12.63
2019-06-26T08:42:05.028Z,11.09
2019-06-26T08:43:04.989Z,11.76
2019-06-26T08:44:05.355Z,12.99
2019-06-26T08:45:04.828Z,11.08
2019-06-26T08:46:05.481Z,11.88
2019-06-26T08:47:05.330Z,11.65
2019-06-26T08:48:38.247Z,11.62
2019-06-26T08:49:04.553Z,12.15
2019-06-26T08:50:05.216Z,11.51
2019-06-26T08:51:04.763Z,11.87
2019-06-26T08:52:06.048Z,11.28
2019-06-26T08:53:05.103Z,12.15
2019-06-26T08:54:06.947Z,10.35
2019-06-26T08:55:05.281Z,12.42
2019-06-26T08:56:04.624Z,11.88
2019-06-26T08:57:05.030Z,10.09
2019-06-26T08:58:05.609Z,11.38
2019-06-26T08:59:05.265Z,10.78
2019-06-26T09:00:05.171Z,11.25
2019-06-26T09:01:05.549Z,12.26
2019-06-26T09:02:05.008Z,12.32
2019-06-26T09:03:05.767Z,11.12
2019-06-26T09:04:05.242Z,11.86
2019-06-26T09:05:04.975Z,10.31
2019-06-26T09:06:05.563Z,10.25
2019-06-26T09:07:04.970Z,9.68
2019-06-26T09:08:05.624Z,9.17
2019-06-26T09:09:04.647Z,10.45
2019-06-26T09:10:05.784Z,9.69
2019-06-26T09:11:05.381Z,10.03
2019-06-26T09:12:04.921Z,9.84
2019-06-26T09:13:04.303Z,8.96
2019-06-26T09:14:04.979Z,9.84
2019-06-26T09:15:05.491Z,8.86
2019-06-26T09:16:05.704Z,9.44
2019-06-26T09:17:04.771Z,9.44
2019-06-26T09:18:05.282Z,8.71
2019-06-26T09:19:04.872Z,8.77
2019-06-26T09:20:05.559Z,8.77
2019-06-26T09:21:04.622Z,9.11
2019-06-26T09:22:05.711Z,8.57
2019-06-26T09:23:04.635Z,8.29
2019-06-26T09:24:04.531Z,8.29
2019-06-26T09:25:22.827Z,8.58
2019-06-26T09:26:04.819Z,8.43
2019-06-26T09:27:05.217Z,8.43
2019-06-26T09:28:04.667Z,8.61
2019-06-26T09:29:04.244Z,8.65
2019-06-26T09:30:05.454Z,8.65
2019-06-26T09:31:04.628Z,7.96
2019-06-26T09:32:05.523Z,9.48
2019-06-26T09:33:05.156Z,8.68
2019-06-26T09:34:04.646Z,8.68
2019-06-26T09:35:05.306Z,8.61
2019-06-26T09:36:08.887Z,7.28
2019-06-26T09:37:05.576Z,7.08
2019-06-26T09:38:05.111Z,7.46
2019-06-26T09:39:04.809Z,6.55
2019-06-26T09:40:05.407Z,6.84
2019-06-26T09:41:05.002Z,7.22
2019-06-26T09:42:04.503Z,7.65
2019-06-26T09:43:05.358Z,7.26
2019-06-26T09:44:04.818Z,7.19
2019-06-26T09:45:05.873Z,7.1
2019-06-26T09:46:04.850Z,7.73
2019-06-26T09:47:05.419Z,6.85
2019-06-26T09:48:05.137Z,6.64
2019-06-26T09:49:04.764Z,6.87
2019-06-26T09:50:05.691Z,7.08
2019-06-26T09:51:04.836Z,6.74
2019-06-26T09:52:05.538Z,6.5
2019-06-26T09:53:07.565Z,7.44
2019-06-26T09:54:04.850Z,6.9
2019-06-26T09:55:05.452Z,6.21
2019-06-26T09:56:05.346Z,6.42
2019-06-26T09:57:04.516Z,6.03
2019-06-26T09:58:05.218Z,6.46
2019-06-26T09:59:04.612Z,21.7
2019-06-26T10:00:05.438Z,11.94
2019-06-26T10:01:05.167Z,9.27
2019-06-26T10:02:04.902Z,7.28
2019-06-26T10:03:05.460Z,7
2019-06-26T10:04:05.407Z,7.44
2019-06-26T10:05:05.040Z,6.65
2019-06-26T10:06:05.435Z,7.53
2019-06-26T10:07:05.279Z,7.4
2019-06-26T10:08:05.586Z,7.32
2019-06-26T10:09:05.436Z,6.95
2019-06-26T10:10:05.438Z,7.38
2019-06-26T10:11:04.517Z,7.66
2019-06-26T10:12:05.243Z,12.24
2019-06-26T10:13:04.920Z,9.68
2019-06-26T10:14:05.459Z,10.87
2019-06-26T10:15:05.005Z,7.54
2019-06-26T10:16:05.566Z,6.71
2019-06-26T10:17:05.121Z,5.79
2019-06-26T10:18:04.633Z,6.09
2019-06-26T10:19:12.654Z,5.66
2019-06-26T10:20:05.015Z,5.74
2019-06-26T10:21:04.446Z,6.83
2019-06-26T10:22:05.371Z,6.06
2019-06-26T10:23:05.034Z,6.76
2019-06-26T10:24:05.610Z,5.73
2019-06-26T10:25:05.640Z,7.39
2019-06-26T10:26:04.607Z,6.91
2019-06-26T10:27:05.626Z,5.78
2019-06-26T10:28:05.327Z,6.81
2019-06-26T10:29:05.471Z,6.01
2019-06-26T10:30:05.802Z,6.96
2019-06-26T10:31:05.273Z,8.82
2019-06-26T10:32:05.518Z,6.96
2019-06-26T10:33:04.908Z,6.51
2019-06-26T10:34:04.700Z,6.68
2019-06-26T10:35:05.227Z,6.78
2019-06-26T10:36:04.973Z,6.36
2019-06-26T10:37:05.288Z,6.35
2019-06-26T10:38:04.798Z,6.25
2019-06-26T10:39:04.763Z,5.52
2019-06-26T10:40:05.291Z,5.27
2019-06-26T10:41:04.710Z,5.85
2019-06-26T10:42:05.599Z,5.24
2019-06-26T10:43:05.207Z,5.6
2019-06-26T10:44:05.656Z,5.75
2019-06-26T10:45:05.766Z,5.31
2019-06-26T10:46:05.118Z,4.96
2019-06-26T10:47:05.735Z,4.96
2019-06-26T10:48:05.242Z,10.27
2019-06-26T10:49:04.800Z,10.27
2019-06-26T10:50:04.950Z,6.51
2019-06-26T10:51:05.490Z,6.66
2019-06-26T10:52:04.666Z,5.38
2019-06-26T10:53:05.051Z,6.04
2019-06-26T10:54:05.214Z,6.65
2019-06-26T10:55:06.045Z,6.11
2019-06-26T10:56:05.066Z,6.04
2019-06-26T10:57:05.726Z,5.38
2019-06-26T10:58:04.901Z,5.74
2019-06-26T10:59:04.635Z,5.63
2019-06-26T11:00:05.601Z,5.34
2019-06-26T11:01:05.316Z,5.18
2019-06-26T11:02:04.754Z,5.64
2019-06-26T11:03:05.244Z,7.25
2019-06-26T11:04:04.652Z,8.18
2019-06-26T11:05:05.003Z,6.99
2019-06-26T11:06:05.084Z,5.94
2019-06-26T11:07:04.654Z,5.68
2019-06-26T11:08:05.669Z,10.38
2019-06-26T11:09:04.948Z,6.99
2019-06-26T11:10:04.787Z,5.85
2019-06-26T11:11:05.421Z,5.64
2019-06-26T11:12:04.784Z,8.94
2019-06-26T11:15:05.350Z,5.45
2019-06-26T11:16:05.614Z,5.76
2019-06-26T11:17:04.831Z,5.71
2019-06-26T11:18:05.460Z,4.94
2019-06-26T11:19:06.072Z,5.18
2019-06-26T11:20:05.424Z,5.48
2019-06-26T11:21:05.156Z,5.91
2019-06-26T11:22:05.234Z,7.26
2019-06-26T11:23:05.095Z,5.91
2019-06-26T11:24:04.963Z,6.09
2019-06-26T11:25:05.088Z,4.74
2019-06-26T11:26:04.715Z,5.13
2019-06-26T11:27:05.573Z,5.08
2019-06-26T11:28:05.320Z,5.09
2019-06-26T11:29:04.689Z,5.52
2019-06-26T11:30:05.821Z,5.64
2019-06-26T11:31:05.002Z,5.71
2019-06-26T11:32:08.408Z,5.68
2019-06-26T11:33:05.129Z,6.21
2019-06-26T11:34:04.982Z,5.93
2019-06-26T11:35:04.862Z,5.06
2019-06-26T11:36:05.336Z,4.88
2019-06-26T11:37:06.353Z,5.42
2019-06-26T11:38:04.788Z,5.75
2019-06-26T11:39:04.696Z,5.11
2019-06-26T11:40:05.487Z,5.89
2019-06-26T11:41:05.057Z,5.4
2019-06-26T11:42:04.841Z,5.58
2019-06-26T11:43:05.120Z,5.79
2019-06-26T11:45:05.076Z,5.66
2019-06-26T11:46:04.947Z,5.94
2019-06-26T11:47:05.759Z,5.63
2019-06-26T11:48:05.058Z,6.45
2019-06-26T11:49:05.549Z,4.96
2019-06-26T11:50:05.010Z,5.06
2019-06-26T11:51:05.523Z,5.23
2019-06-26T11:52:05.304Z,6.19
2019-06-26T11:53:05.170Z,5.32
2019-06-26T11:54:05.602Z,5.76
2019-06-26T11:55:06.169Z,5.07
2019-06-26T11:56:05.399Z,5.19
2019-06-26T11:57:05.076Z,5.55
2019-06-26T11:58:05.393Z,7.55
2019-06-26T11:59:05.068Z,5.99
2019-06-26T12:00:04.828Z,7.28
2019-06-26T12:01:05.655Z,7.04
2019-06-26T12:02:04.802Z,5.65
2019-06-26T12:03:05.514Z,6.48
2019-06-26T12:04:05.365Z,6.15
2019-06-26T12:05:05.260Z,5.88
2019-06-26T12:06:20.207Z,5.54
2019-06-26T12:07:05.507Z,9.65
2019-06-26T12:08:05.012Z,6.25
2019-06-26T12:09:05.431Z,6.15
2019-06-26T12:10:05.539Z,5.5
2019-06-26T12:11:05.629Z,5.76
2019-06-26T12:12:05.474Z,8.62
2019-06-26T12:13:06.354Z,16.49
2019-06-26T12:14:05.263Z,16.49
2019-06-26T12:15:05.033Z,5.51
2019-06-26T12:16:05.498Z,5.68
2019-06-26T12:17:05.591Z,6.09
2019-06-26T12:18:05.201Z,5.1
2019-06-26T12:19:04.557Z,5.1
2019-06-26T12:20:20.188Z,6.49
2019-06-26T12:21:05.333Z,5.33
2019-06-26T12:22:04.563Z,6.06
2019-06-26T12:23:05.023Z,6.06
2019-06-26T12:24:05.479Z,5.32
2019-06-26T12:25:05.713Z,6.89
2019-06-26T12:26:05.226Z,6.89
2019-06-26T12:27:05.486Z,5.31
2019-06-26T12:28:04.979Z,6.28
2019-06-26T12:29:05.125Z,6.28
2019-06-26T12:30:05.551Z,5.84
2019-06-26T12:31:04.937Z,5.19
2019-06-26T12:32:05.048Z,5.22
2019-06-26T12:33:05.973Z,5.36
2019-06-26T12:34:05.781Z,5.31
2019-06-26T12:35:04.795Z,5.52
2019-06-26T12:36:05.686Z,6.14
2019-06-26T12:37:04.761Z,5.21
2019-06-26T12:38:04.929Z,7.46
2019-06-26T12:39:05.115Z,5.81
2019-06-26T12:40:05.063Z,5.65
2019-06-26T12:41:05.003Z,5.56
2019-06-26T12:42:05.851Z,5.25
2019-06-26T12:43:05.104Z,5.73
2019-06-26T12:44:05.031Z,5.71
2019-06-26T12:45:05.482Z,5.97
2019-06-26T12:46:05.152Z,5.41
2019-06-26T12:47:04.723Z,5.89
2019-06-26T12:48:05.353Z,5.82
2019-06-26T12:49:05.415Z,6.19
2019-06-26T12:50:05.334Z,6.74
2019-06-26T12:51:05.064Z,5.95
2019-06-26T12:52:05.168Z,6.1
2019-06-26T12:53:05.386Z,5.81
2019-06-26T12:54:05.672Z,6.84
2019-06-26T12:55:05.214Z,5.54
2019-06-26T12:56:05.263Z,5.59
2019-06-26T12:57:05.182Z,5.83
2019-06-26T12:58:19.610Z,5.73
2019-06-26T12:59:04.908Z,6.04
2019-06-26T13:00:05.231Z,6.03
2019-06-26T13:01:04.640Z,5.99
2019-06-26T13:02:05.153Z,5.51
2019-06-26T13:03:04.770Z,5.58
2019-06-26T13:04:05.246Z,5.09
2019-06-26T13:05:05.656Z,7.29
2019-06-26T13:06:05.159Z,6.77
2019-06-26T13:07:04.821Z,6.23
2019-06-26T13:08:04.938Z,5.28
2019-06-26T13:09:05.417Z,5.18
2019-06-26T13:10:09.649Z,5.33
2019-06-26T13:11:05.074Z,5.88
2019-06-26T13:12:04.809Z,6.02
2019-06-26T13:13:04.811Z,5.25
2019-06-26T13:14:05.379Z,5.85
2019-06-26T13:15:04.830Z,5.36
2019-06-26T13:16:05.506Z,6.22
2019-06-26T13:17:06.007Z,5.52
2019-06-26T13:18:04.941Z,5.61
2019-06-26T13:19:05.727Z,4.91
2019-06-26T13:20:04.741Z,5.59
2019-06-26T13:21:07.434Z,5.28
2019-06-26T13:22:04.689Z,6.11
2019-06-26T13:23:04.972Z,12.5
2019-06-26T13:24:05.102Z,6.75
2019-06-26T13:25:04.758Z,8.35
2019-06-26T13:26:04.885Z,11.07
2019-06-26T13:27:05.478Z,6.51
2019-06-26T13:28:04.918Z,7.36
2019-06-26T13:29:05.442Z,6.99
2019-06-26T13:30:04.962Z,11.42
2019-06-26T13:31:05.589Z,6.15
2019-06-26T13:32:04.911Z,5.76
2019-06-26T13:33:05.159Z,6.01
2019-06-26T13:34:04.608Z,5.01
2019-06-26T13:35:05.712Z,5.28
2019-06-26T13:36:04.838Z,6.09
2019-06-26T13:37:07.156Z,5.18
2019-06-26T13:38:06.810Z,6.11
2019-06-26T13:39:05.374Z,5.81
2019-06-26T13:40:05.660Z,6.44
2019-06-26T13:41:04.708Z,6.02
2019-06-26T13:42:05.135Z,6.21
2019-06-26T13:43:05.542Z,5.13
2019-06-26T13:44:04.855Z,5.78
2019-06-26T13:45:05.235Z,6.57
2019-06-26T13:46:04.898Z,6.57
2019-06-26T13:47:04.986Z,6.27
2019-06-26T13:48:05.268Z,6.18
2019-06-26T13:49:04.868Z,6.18
2019-06-26T13:50:05.177Z,6.02
2019-06-26T13:51:11.934Z,6.02
2019-06-26T13:52:04.872Z,6.22
2019-06-26T13:53:05.431Z,6.22
2019-06-26T13:54:04.876Z,5.09
2019-06-26T13:55:05.413Z,5.79
2019-06-26T13:56:06.021Z,6.86
2019-06-26T13:57:05.018Z,5.79
2019-06-26T13:58:05.484Z,5.89
2019-06-26T13:59:09.402Z,5.58
2019-06-26T14:00:04.098Z,5.95
2019-06-26T14:01:05.487Z,5.95
2019-06-26T14:02:05.264Z,6.18
2019-06-26T14:03:05.306Z,5.74
2019-06-26T14:04:04.631Z,6.25
2019-06-26T14:05:05.249Z,5.14
2019-06-26T14:06:04.677Z,5.53
2019-06-26T14:07:07.751Z,5.95
2019-06-26T14:08:05.639Z,5.52
2019-06-26T14:09:05.318Z,6.29
2019-06-26T14:10:05.588Z,5.48
2019-06-26T14:11:07.200Z,5.68
2019-06-26T14:12:05.396Z,5.55
2019-06-26T14:13:04.834Z,5.02
2019-06-26T14:14:05.220Z,6.05
2019-06-26T14:15:05.130Z,5.34
2019-06-26T14:16:05.313Z,6.69
2019-06-26T14:17:05.196Z,5.86
2019-06-26T14:18:05.397Z,5.58
2019-06-26T14:19:05.533Z,5.55
2019-06-26T14:20:05.329Z,5.33
2019-06-26T14:21:04.969Z,5.53
2019-06-26T14:22:05.056Z,5.34
2019-06-26T14:23:05.689Z,5.43
2019-06-26T14:24:04.941Z,4.97
2019-06-26T14:25:05.404Z,5.05
2019-06-26T14:26:04.504Z,5.81
2019-06-26T14:27:05.080Z,6.02
2019-06-26T14:28:05.451Z,6.42
2019-06-26T14:29:16.949Z,6.8
2019-06-26T14:30:05.109Z,6.01
2019-06-26T14:31:05.741Z,6.34
2019-06-26T14:32:05.126Z,5.45
2019-06-26T14:33:04.703Z,6.46
2019-06-26T14:34:05.250Z,5.82
2019-06-26T14:35:05.500Z,5.62
2019-06-26T14:36:05.184Z,5.71
2019-06-26T14:37:04.862Z,6.12
2019-06-26T14:38:05.166Z,6.38
2019-06-26T14:39:05.484Z,5.89
2019-06-26T14:40:05.344Z,6.63
2019-06-26T14:41:05.223Z,11.72
2019-06-26T14:42:04.771Z,8.36
2019-06-26T14:43:05.458Z,6.91
2019-06-26T14:44:05.152Z,6.56
2019-06-26T14:45:05.221Z,8.1
2019-06-26T14:46:04.676Z,6.95
2019-06-26T14:47:04.996Z,9.24
2019-06-26T14:48:05.498Z,10.21
2019-06-26T14:49:04.866Z,7.19
2019-06-26T14:50:05.892Z,6.49
2019-06-26T14:51:04.818Z,6.13
2019-06-26T14:52:05.084Z,5.72